Time;durP1;ratioP1;P1;durP2;ratioP2;P2;SDS_P1;SDS_P2;PMS_P1;PMS_P2;Temp;Humidity;BMP_temperature;BMP_pressure;BME280_temperature;BME280_humidity;BME280_pressure;Samples;Min_cycle;Max_cycle;Signal;HPM_P1;HPM_P2
2022/10/07 00:01:04;;;;;;;;;;;9.00;99.90;;;;;;5044670;28;19929;-70
2022/10/07 00:03:31;;;;;;;;;;;9.00;99.90;;;;;;5044604;28;19984;-71
2022/10/07 00:06:02;;;;;;;;;;;9.00;99.90;;;;;;5044412;28;20132;-71
2022/10/07 00:08:28;;;;;;;;;;;8.90;99.90;;;;;;5044235;28;19953;-72
2022/10/07 00:10:55;;;;;;;;;;;8.90;99.90;;;;;;5044482;28;19921;-71
2022/10/07 00:13:22;;;;;;;;;;;8.90;99.90;;;;;;5044213;28;20175;-71
2022/10/07 00:15:50;;;;;;;;;;;8.80;99.90;;;;;;5044028;28;20229;-72
2022/10/07 00:18:16;;;;;;;;;;;8.80;99.90;;;;;;5044516;28;20114;-71
2022/10/07 00:20:43;;;;;;;;;;;8.80;99.90;;;;;;5044391;28;19921;-71
2022/10/07 00:23:09;;;;;;;;;;;8.80;99.90;;;;;;5043961;28;19935;-70
2022/10/07 00:25:36;;;;;;;;;;;8.80;99.90;;;;;;5043441;28;19980;-71
2022/10/07 00:28:03;;;;;;;;;;;8.80;99.90;;;;;;5044067;28;19960;-71
2022/10/07 00:30:30;;;;;;;;;;;8.80;99.90;;;;;;5044285;28;19928;-71
2022/10/07 00:32:59;;;;;;;;;;;8.80;99.90;;;;;;5043399;28;20240;-71
2022/10/07 00:35:25;;;;;;;;;;;8.80;99.90;;;;;;5024103;28;19928;-71
2022/10/07 00:37:52;;;;;;;;;;;8.80;99.90;;;;;;5037790;28;19976;-71
2022/10/07 00:40:18;;;;;;;;;;;8.80;99.90;;;;;;5043696;28;19943;-71
2022/10/07 00:42:45;;;;;;;;;;;8.80;99.90;;;;;;5043517;28;19992;-71
2022/10/07 00:45:15;;;;;;;;;;;8.80;99.90;;;;;;5043498;28;20128;-71
2022/10/07 00:47:44;;;;;;;;;;;8.80;99.90;;;;;;5043878;28;19928;-72
2022/10/07 00:50:14;;;;;;;;;;;8.80;99.90;;;;;;5043185;28;19921;-71
2022/10/07 00:52:42;;;;;;;;;;;8.80;99.90;;;;;;5043403;28;19921;-71
2022/10/07 00:55:11;;;;;;;;;;;8.90;99.90;;;;;;5043076;28;19975;-71
2022/10/07 00:57:39;;;;;;;;;;;8.90;99.90;;;;;;5043448;28;19980;-71
2022/10/07 01:00:07;;;;;;;;;;;8.90;99.90;;;;;;5043640;28;19984;-71
2022/10/07 01:02:35;;;;;;;;;;;8.90;99.90;;;;;;5043516;28;20255;-71
2022/10/07 01:05:03;;;;;;;;;;;8.90;99.90;;;;;;5043241;28;19956;-70
2022/10/07 01:07:31;;;;;;;;;;;8.80;99.90;;;;;;5043323;28;19929;-71
2022/10/07 01:09:59;;;;;;;;;;;8.80;99.90;;;;;;5043631;28;20262;-71
2022/10/07 01:12:30;;;;;;;;;;;8.70;99.90;;;;;;5042983;28;19921;-71
2022/10/07 01:15:00;;;;;;;;;;;8.60;99.90;;;;;;5043248;28;20119;-71
2022/10/07 01:17:30;;;;;;;;;;;8.60;99.90;;;;;;5043448;28;19928;-71
2022/10/07 01:20:07;;;;;;;;;;;8.60;99.90;;;;;;5023610;28;19932;-71
2022/10/07 01:22:41;;;;;;;;;;;8.60;99.90;;;;;;5027005;28;19935;-72
2022/10/07 01:25:14;;;;;;;;;;;8.70;99.90;;;;;;5042791;28;19922;-71
2022/10/07 01:27:45;;;;;;;;;;;8.70;99.90;;;;;;5043103;28;19921;-72
2022/10/07 01:30:12;;;;;;;;;;;8.80;99.90;;;;;;5043150;28;19928;-71
2022/10/07 01:32:41;;;;;;;;;;;8.80;99.90;;;;;;5043022;28;19921;-72
2022/10/07 01:35:09;;;;;;;;;;;8.80;99.90;;;;;;5041315;28;20127;-71
2022/10/07 01:37:40;;;;;;;;;;;8.90;99.90;;;;;;5036569;28;19927;-70
2022/10/07 01:40:09;;;;;;;;;;;8.90;99.90;;;;;;5037701;28;19921;-71
2022/10/07 01:42:36;;;;;;;;;;;8.90;99.90;;;;;;5034987;28;19921;-71
2022/10/07 01:45:04;;;;;;;;;;;8.90;99.90;;;;;;5042658;28;19921;-71
2022/10/07 01:47:32;;;;;;;;;;;9.00;99.90;;;;;;5043117;28;19921;-72
2022/10/07 01:49:58;;;;;;;;;;;9.00;99.90;;;;;;5034987;28;20156;-71
2022/10/07 01:52:41;;;;;;;;;;;9.00;99.90;;;;;;5042026;28;19921;-71
2022/10/07 01:55:27;;;;;;;;;;;9.10;99.90;;;;;;5042680;28;19921;-71
2022/10/07 01:57:58;;;;;;;;;;;9.10;99.90;;;;;;5043112;28;20151;-71
2022/10/07 02:00:26;;;;;;;;;;;9.10;99.90;;;;;;5042835;28;19921;-71
2022/10/07 02:02:56;;;;;;;;;;;9.10;99.90;;;;;;5034558;28;19921;-71
2022/10/07 02:05:27;;;;;;;;;;;9.10;99.90;;;;;;5026758;28;20227;-70
2022/10/07 02:07:59;;;;;;;;;;;9.10;99.90;;;;;;5029093;28;19941;-72
2022/10/07 02:10:30;;;;;;;;;;;9.10;99.90;;;;;;5046957;28;20171;-71
2022/10/07 02:12:59;;;;;;;;;;;9.10;99.90;;;;;;5046365;28;20259;-72
2022/10/07 02:15:30;;;;;;;;;;;9.10;99.90;;;;;;5046326;28;19921;-71
2022/10/07 02:17:59;;;;;;;;;;;9.10;99.90;;;;;;5046083;28;20326;-71
2022/10/07 02:20:27;;;;;;;;;;;9.10;99.90;;;;;;5046388;28;20247;-71
2022/10/07 02:22:55;;;;;;;;;;;9.20;99.90;;;;;;5046364;28;20256;-71
2022/10/07 02:25:22;;;;;;;;;;;9.20;99.90;;;;;;5045750;28;19936;-71
2022/10/07 02:27:51;;;;;;;;;;;9.20;99.90;;;;;;5046313;28;19927;-72
2022/10/07 02:30:19;;;;;;;;;;;9.20;99.90;;;;;;5046207;28;19921;-71
2022/10/07 02:32:50;;;;;;;;;;;9.10;99.90;;;;;;5045965;28;19921;-71
2022/10/07 02:35:22;;;;;;;;;;;9.10;99.90;;;;;;5045721;28;20116;-71
2022/10/07 02:37:49;;;;;;;;;;;9.20;99.90;;;;;;5046170;28;19956;-71
2022/10/07 02:40:16;;;;;;;;;;;9.20;99.90;;;;;;5046275;28;19921;-71
2022/10/07 02:42:51;;;;;;;;;;;9.20;99.90;;;;;;5046032;28;19931;-72
2022/10/07 02:45:19;;;;;;;;;;;9.20;99.90;;;;;;5045465;28;19928;-71
2022/10/07 02:47:49;;;;;;;;;;;9.20;99.90;;;;;;5045832;28;19928;-72
2022/10/07 02:50:19;;;;;;;;;;;9.20;99.90;;;;;;5026043;28;20243;-71
2022/10/07 02:52:46;;;;;;;;;;;9.20;99.90;;;;;;5026177;28;19925;-71
2022/10/07 02:55:14;;;;;;;;;;;9.20;99.90;;;;;;5025613;28;19922;-71
2022/10/07 02:57:43;;;;;;;;;;;9.30;99.90;;;;;;5025868;28;19921;-71
2022/10/07 03:00:10;;;;;;;;;;;9.30;99.90;;;;;;5044466;28;19921;-71
2022/10/07 03:02:39;;;;;;;;;;;9.30;99.90;;;;;;5045498;28;19943;-72
2022/10/07 03:05:09;;;;;;;;;;;9.20;99.90;;;;;;5045580;28;19984;-71
2022/10/07 03:07:36;;;;;;;;;;;9.30;99.90;;;;;;5045369;28;19928;-72
2022/10/07 03:10:02;;;;;;;;;;;9.30;99.90;;;;;;5045456;28;20119;-71
2022/10/07 03:12:29;;;;;;;;;;;9.30;99.90;;;;;;5044905;28;19927;-71
2022/10/07 03:14:56;;;;;;;;;;;9.30;99.90;;;;;;5044546;28;19984;-71
2022/10/07 03:17:23;;;;;;;;;;;9.40;99.90;;;;;;5045398;28;20262;-70
2022/10/07 03:19:49;;;;;;;;;;;9.30;99.90;;;;;;5045267;28;20066;-71
2022/10/07 03:22:17;;;;;;;;;;;9.40;99.90;;;;;;5045251;28;19988;-71
2022/10/07 03:24:44;;;;;;;;;;;9.40;99.90;;;;;;5063147;22;19917;-74
2022/10/07 03:27:10;;;;;;;;;;;9.40;99.90;;;;;;5065802;28;19983;-73
2022/10/07 03:29:37;;;;;;;;;;;9.40;99.90;;;;;;5078733;28;19925;-74
2022/10/07 03:32:04;;;;;;;;;;;9.40;99.90;;;;;;5066089;28;19921;-74
2022/10/07 03:34:31;;;;;;;;;;;9.50;99.90;;;;;;5064938;28;19943;-74
2022/10/07 03:36:58;;;;;;;;;;;9.50;99.90;;;;;;5065078;28;19924;-74
2022/10/07 03:39:26;;;;;;;;;;;9.50;99.90;;;;;;5063601;28;19927;-74
2022/10/07 03:41:53;;;;;;;;;;;9.50;99.90;;;;;;5064889;28;19961;-74
2022/10/07 03:44:21;;;;;;;;;;;9.50;99.90;;;;;;5058419;28;19943;-74
2022/10/07 03:46:48;;;;;;;;;;;9.50;99.90;;;;;;5044661;28;19945;-74
2022/10/07 03:49:15;;;;;;;;;;;9.50;99.90;;;;;;5044356;28;19921;-74
2022/10/07 03:51:41;;;;;;;;;;;9.40;99.90;;;;;;5044866;28;19921;-74
2022/10/07 03:54:08;;;;;;;;;;;9.50;99.90;;;;;;5044696;28;19992;-74
2022/10/07 03:56:36;;;;;;;;;;;9.50;99.90;;;;;;5044829;28;19999;-74
2022/10/07 03:59:03;;;;;;;;;;;9.50;99.90;;;;;;5045510;28;20166;-74
2022/10/07 04:01:30;;;;;;;;;;;9.60;99.90;;;;;;5044895;28;19966;-74
2022/10/07 04:03:57;;;;;;;;;;;9.50;99.90;;;;;;5044678;28;19932;-73
2022/10/07 04:06:23;;;;;;;;;;;9.50;99.90;;;;;;5044159;28;19956;-74
2022/10/07 04:08:51;;;;;;;;;;;9.50;99.90;;;;;;5049372;28;20212;-74
2022/10/07 04:11:18;;;;;;;;;;;9.50;99.90;;;;;;5061281;28;20234;-74
2022/10/07 04:13:46;;;;;;;;;;;9.60;99.90;;;;;;5071723;28;19975;-74
2022/10/07 04:16:13;;;;;;;;;;;9.60;99.90;;;;;;5073119;28;19958;-74
2022/10/07 04:18:40;;;;;;;;;;;9.60;99.90;;;;;;5069721;28;20208;-75
2022/10/07 04:21:07;;;;;;;;;;;9.60;99.90;;;;;;5065178;28;20163;-74
2022/10/07 04:23:34;;;;;;;;;;;9.60;99.90;;;;;;5068248;28;20234;-74
2022/10/07 04:26:00;;;;;;;;;;;9.60;99.90;;;;;;5061799;28;19921;-76
2022/10/07 04:28:27;;;;;;;;;;;9.70;99.90;;;;;;5061583;28;19921;-72
2022/10/07 04:30:55;;;;;;;;;;;9.70;99.90;;;;;;5055914;28;19988;-73
2022/10/07 04:33:22;;;;;;;;;;;9.70;99.90;;;;;;5058096;28;19979;-74
2022/10/07 04:35:49;;;;;;;;;;;9.70;99.90;;;;;;5060823;28;19963;-74
2022/10/07 04:38:16;;;;;;;;;;;9.70;99.90;;;;;;5064627;28;19928;-72
2022/10/07 04:40:44;;;;;;;;;;;9.70;99.90;;;;;;5064618;28;19920;-74
2022/10/07 04:43:18;;;;;;;;;;;9.70;99.90;;;;;;5064746;28;19921;-75
2022/10/07 04:45:46;;;;;;;;;;;9.70;99.90;;;;;;5063598;28;19923;-72
2022/10/07 04:48:17;;;;;;;;;;;9.70;99.90;;;;;;5064554;28;19920;-76
2022/10/07 04:50:44;;;;;;;;;;;9.70;99.90;;;;;;5064433;28;19972;-76
2022/10/07 04:53:13;;;;;;;;;;;9.70;99.90;;;;;;5060800;28;19943;-76
2022/10/07 04:55:58;;;;;;;;;;;9.70;99.90;;;;;;5049494;28;20212;-76
2022/10/07 04:58:25;;;;;;;;;;;9.70;99.90;;;;;;5062628;28;19921;-75
2022/10/07 05:00:52;;;;;;;;;;;9.70;99.90;;;;;;5064246;28;19920;-75
2022/10/07 05:03:21;;;;;;;;;;;9.70;99.90;;;;;;5064877;28;20108;-75
2022/10/07 05:05:49;;;;;;;;;;;9.70;99.90;;;;;;5063826;28;19925;-74
2022/10/07 05:08:17;;;;;;;;;;;9.80;99.90;;;;;;5063981;28;19976;-75
2022/10/07 05:10:44;;;;;;;;;;;9.70;99.90;;;;;;5064749;28;19988;-76
2022/10/07 05:13:12;;;;;;;;;;;9.80;99.90;;;;;;5064011;28;19921;-75
2022/10/07 05:15:38;;;;;;;;;;;9.80;99.90;;;;;;5063481;28;19987;-72
2022/10/07 05:18:06;;;;;;;;;;;9.80;99.90;;;;;;5063786;28;19984;-70
2022/10/07 05:20:34;;;;;;;;;;;9.80;99.90;;;;;;5063310;28;19920;-71
2022/10/07 05:23:00;;;;;;;;;;;9.90;99.90;;;;;;5063622;28;19984;-70
2022/10/07 05:25:27;;;;;;;;;;;9.90;99.90;;;;;;5063484;28;19989;-72
2022/10/07 05:27:53;;;;;;;;;;;9.90;99.90;;;;;;5063970;28;20271;-72
2022/10/07 05:30:20;;;;;;;;;;;9.90;99.90;;;;;;5064495;28;19984;-72
2022/10/07 05:32:48;;;;;;;;;;;10.00;99.90;;;;;;5062370;28;19921;-73
2022/10/07 05:35:15;;;;;;;;;;;10.00;99.90;;;;;;5063544;28;19927;-72
2022/10/07 05:37:43;;;;;;;;;;;10.00;99.90;;;;;;5063338;28;20274;-73
2022/10/07 05:40:09;;;;;;;;;;;10.00;99.90;;;;;;5063976;28;19950;-72
2022/10/07 05:42:36;;;;;;;;;;;10.00;99.90;;;;;;5063342;28;20204;-73
2022/10/07 05:45:04;;;;;;;;;;;10.00;99.90;;;;;;5063068;28;19921;-72
2022/10/07 05:47:32;;;;;;;;;;;10.10;99.90;;;;;;5063705;28;20254;-73
2022/10/07 05:49:58;;;;;;;;;;;10.10;99.90;;;;;;5063590;28;19963;-73
2022/10/07 05:52:25;;;;;;;;;;;10.10;99.90;;;;;;5063373;28;19956;-72
2022/10/07 05:54:53;;;;;;;;;;;10.20;99.90;;;;;;5063298;28;19984;-73
2022/10/07 05:57:19;;;;;;;;;;;10.10;99.90;;;;;;5063726;28;19921;-71
2022/10/07 05:59:46;;;;;;;;;;;10.20;99.90;;;;;;5063368;28;19956;-73
2022/10/07 06:02:13;;;;;;;;;;;10.20;99.90;;;;;;5063553;28;19983;-72
2022/10/07 06:04:41;;;;;;;;;;;10.20;99.90;;;;;;5063138;28;20230;-73
2022/10/07 06:07:08;;;;;;;;;;;10.20;99.90;;;;;;5063319;28;20148;-73
2022/10/07 06:15:13;;;;;;;;;;;10.30;99.90;;;;;;5051944;28;19960;-72
2022/10/07 06:17:41;;;;;;;;;;;10.30;99.90;;;;;;5043194;28;19988;-73
2022/10/07 06:20:08;;;;;;;;;;;10.30;99.90;;;;;;5043339;28;19947;-73
2022/10/07 06:22:34;;;;;;;;;;;10.30;99.90;;;;;;5043417;28;19921;-73
2022/10/07 06:25:01;;;;;;;;;;;10.40;99.90;;;;;;5042924;28;19927;-73
2022/10/07 06:27:29;;;;;;;;;;;10.40;99.90;;;;;;5043582;28;20145;-73
2022/10/07 06:29:55;;;;;;;;;;;10.50;99.90;;;;;;5043451;28;19921;-72
2022/10/07 06:32:22;;;;;;;;;;;10.50;99.90;;;;;;5042989;28;19943;-74
2022/10/07 06:34:49;;;;;;;;;;;10.50;99.90;;;;;;5042404;28;20426;-73
2022/10/07 06:37:15;;;;;;;;;;;10.50;99.90;;;;;;5043251;28;19921;-73
2022/10/07 06:39:42;;;;;;;;;;;10.60;99.90;;;;;;5043102;28;19952;-72
2022/10/07 06:42:08;;;;;;;;;;;10.60;99.90;;;;;;5043294;28;19988;-73
2022/10/07 06:44:36;;;;;;;;;;;10.60;99.90;;;;;;5042660;28;19927;-72
2022/10/07 06:47:03;;;;;;;;;;;10.60;99.90;;;;;;5043127;28;19959;-72
2022/10/07 06:49:30;;;;;;;;;;;10.60;99.90;;;;;;5045686;28;19928;-73
2022/10/07 06:51:57;;;;;;;;;;;10.70;99.90;;;;;;5046815;28;19960;-73
2022/10/07 06:54:24;;;;;;;;;;;10.70;99.90;;;;;;5046482;28;19984;-72
2022/10/07 06:56:50;;;;;;;;;;;10.70;99.90;;;;;;5046083;28;20204;-73
2022/10/07 06:59:17;;;;;;;;;;;10.80;99.90;;;;;;5046579;28;19984;-73
2022/10/07 07:01:45;;;;;;;;;;;10.80;99.90;;;;;;5046226;28;20239;-74
2022/10/07 07:04:11;;;;;;;;;;;10.80;99.90;;;;;;5046452;28;19921;-73
2022/10/07 07:06:38;;;;;;;;;;;10.80;99.90;;;;;;5046009;28;19927;-73
2022/10/07 07:09:05;;;;;;;;;;;10.90;99.90;;;;;;5046137;28;20226;-73
2022/10/07 07:11:40;;;;;;;;;;;10.90;99.90;;;;;;5046406;28;19921;-73
2022/10/07 07:14:07;;;;;;;;;;;11.00;99.90;;;;;;5046198;28;19967;-72
2022/10/07 07:16:34;;;;;;;;;;;11.00;99.90;;;;;;5045588;28;19927;-73
2022/10/07 07:19:03;;;;;;;;;;;11.00;99.90;;;;;;5045984;28;19922;-74
2022/10/07 07:21:32;;;;;;;;;;;11.00;99.90;;;;;;5045877;28;20204;-72
2022/10/07 07:23:59;;;;;;;;;;;11.10;99.90;;;;;;5046130;28;20116;-73
2022/10/07 07:26:27;;;;;;;;;;;11.10;99.90;;;;;;5045464;28;19921;-72
2022/10/07 07:28:54;;;;;;;;;;;11.10;99.90;;;;;;5045977;28;19920;-73
2022/10/07 07:31:20;;;;;;;;;;;11.10;99.90;;;;;;5058234;28;19921;-72
2022/10/07 07:33:51;;;;;;;;;;;11.10;99.90;;;;;;5064676;28;19921;-72
2022/10/07 07:36:21;;;;;;;;;;;11.20;99.90;;;;;;5065521;28;19921;-73
2022/10/07 07:38:52;;;;;;;;;;;11.20;99.90;;;;;;5065841;28;19921;-73
2022/10/07 07:41:18;;;;;;;;;;;11.20;99.90;;;;;;5065725;28;19948;-73
2022/10/07 07:43:47;;;;;;;;;;;11.20;99.90;;;;;;5065353;28;19920;-73
2022/10/07 07:46:14;;;;;;;;;;;11.20;99.90;;;;;;5065283;28;19921;-73
2022/10/07 07:48:40;;;;;;;;;;;11.30;99.90;;;;;;5063134;28;19987;-73
2022/10/07 07:51:07;;;;;;;;;;;11.30;99.90;;;;;;5065029;28;20166;-74
2022/10/07 07:53:36;;;;;;;;;;;11.30;99.90;;;;;;5063074;28;19958;-74
2022/10/07 07:56:03;;;;;;;;;;;11.30;99.90;;;;;;5065187;28;20141;-73
2022/10/07 07:58:29;;;;;;;;;;;11.40;99.90;;;;;;5064846;28;19984;-73
2022/10/07 08:01:00;;;;;;;;;;;11.40;99.90;;;;;;5062593;28;20123;-73
2022/10/07 08:03:27;;;;;;;;;;;11.50;99.90;;;;;;5068595;28;19927;-73
2022/10/07 08:05:53;;;;;;;;;;;11.50;99.90;;;;;;5064934;28;19920;-73
2022/10/07 08:08:21;;;;;;;;;;;11.60;99.90;;;;;;5065177;28;19927;-74
2022/10/07 08:10:48;;;;;;;;;;;11.60;99.90;;;;;;5064932;28;20119;-73
2022/10/07 08:13:15;;;;;;;;;;;11.70;99.90;;;;;;5064944;28;19927;-72
2022/10/07 08:15:42;;;;;;;;;;;11.70;99.90;;;;;;5064292;28;19928;-73
2022/10/07 08:18:08;;;;;;;;;;;11.70;99.90;;;;;;5064942;28;19959;-73
2022/10/07 08:20:36;;;;;;;;;;;11.80;99.90;;;;;;5064572;28;20230;-73
2022/10/07 08:23:02;;;;;;;;;;;11.80;99.90;;;;;;5064509;28;20208;-73
2022/10/07 08:25:29;;;;;;;;;;;11.80;99.90;;;;;;5064059;28;19927;-73
2022/10/07 08:27:57;;;;;;;;;;;11.90;99.90;;;;;;5064734;28;20101;-73
2022/10/07 08:30:24;;;;;;;;;;;11.90;99.90;;;;;;5064696;28;19966;-74
2022/10/07 08:32:53;;;;;;;;;;;12.00;99.90;;;;;;5063602;28;19962;-73
2022/10/07 08:35:20;;;;;;;;;;;12.00;99.90;;;;;;5064118;28;19995;-72
2022/10/07 08:37:47;;;;;;;;;;;12.10;99.90;;;;;;5064544;28;20025;-73
2022/10/07 08:40:14;;;;;;;;;;;12.10;99.90;;;;;;5064223;28;19992;-74
2022/10/07 08:42:42;;;;;;;;;;;12.20;99.90;;;;;;5064374;28;19956;-73
2022/10/07 08:45:13;;;;;;;;;;;12.20;99.90;;;;;;5063819;28;19921;-73
2022/10/07 08:47:42;;;;;;;;;;;12.30;99.90;;;;;;5064161;28;19980;-72
2022/10/07 08:50:12;;;;;;;;;;;12.40;99.90;;;;;;5064327;28;20148;-72
2022/10/07 08:52:47;;;;;;;;;;;12.50;99.90;;;;;;5064279;28;19921;-72
2022/10/07 08:55:15;;;;;;;;;;;12.50;99.90;;;;;;5063545;28;20217;-73
2022/10/07 08:57:47;;;;;;;;;;;12.60;99.90;;;;;;5063908;28;19927;-72
2022/10/07 09:00:17;;;;;;;;;;;12.60;99.90;;;;;;5064247;28;19927;-74
2022/10/07 09:02:52;;;;;;;;;;;12.70;99.90;;;;;;5064068;28;19945;-73
2022/10/07 09:05:21;;;;;;;;;;;12.80;99.90;;;;;;5063676;28;19952;-73
2022/10/07 09:07:49;;;;;;;;;;;12.90;99.90;;;;;;5064103;28;19920;-73
2022/10/07 09:10:25;;;;;;;;;;;12.90;99.90;;;;;;5063967;28;19928;-73
2022/10/07 09:12:56;;;;;;;;;;;13.00;99.90;;;;;;5063821;28;19988;-73
2022/10/07 09:15:28;;;;;;;;;;;13.10;99.90;;;;;;5063683;28;19924;-73
2022/10/07 09:17:57;;;;;;;;;;;13.20;99.90;;;;;;5064051;28;19928;-72
2022/10/07 09:20:30;;;;;;;;;;;13.20;99.90;;;;;;5063008;28;19927;-72
2022/10/07 09:22:57;;;;;;;;;;;13.40;99.90;;;;;;5063720;28;19921;-72
2022/10/07 09:25:25;;;;;;;;;;;13.50;99.90;;;;;;5090121;22;19927;-72
2022/10/07 09:27:53;;;;;;;;;;;13.50;99.90;;;;;;5079824;28;19921;-71
2022/10/07 09:30:20;;;;;;;;;;;13.60;99.90;;;;;;5083680;28;20065;-71
2022/10/07 09:32:48;;;;;;;;;;;13.70;99.90;;;;;;5076179;28;19927;-71
2022/10/07 09:35:16;;;;;;;;;;;13.80;99.90;;;;;;5103203;28;19942;-70
2022/10/07 09:37:57;;;;;;;;;;;14.00;99.90;;;;;;5100976;28;19920;-71
2022/10/07 09:40:31;;;;;;;;;;;14.10;99.90;;;;;;5074985;28;20242;-71
2022/10/07 09:42:58;;;;;;;;;;;14.20;99.90;;;;;;5078279;28;19921;-71
2022/10/07 09:45:25;;;;;;;;;;;14.30;99.90;;;;;;5083003;28;19994;-71
2022/10/07 09:47:55;;;;;;;;;;;14.50;99.90;;;;;;5083477;28;19920;-71
2022/10/07 09:50:36;;;;;;;;;;;14.60;99.90;;;;;;5082952;28;19942;-71
2022/10/07 09:53:04;;;;;;;;;;;14.70;99.90;;;;;;5083049;28;19925;-71
2022/10/07 09:55:36;;;;;;;;;;;14.90;99.90;;;;;;5074390;28;20115;-72
2022/10/07 09:58:05;;;;;;;;;;;15.00;99.90;;;;;;5082686;28;19920;-71
2022/10/07 10:00:31;;;;;;;;;;;15.20;99.90;;;;;;5082710;28;19927;-71
2022/10/07 10:03:03;;;;;;;;;;;15.30;99.90;;;;;;5082807;28;19920;-71
2022/10/07 10:05:31;;;;;;;;;;;15.40;99.90;;;;;;5082697;28;20115;-71
2022/10/07 10:07:59;;;;;;;;;;;15.50;99.90;;;;;;5083028;28;19920;-71
2022/10/07 10:10:27;;;;;;;;;;;15.60;99.90;;;;;;5082736;28;19983;-71
2022/10/07 10:12:55;;;;;;;;;;;15.70;99.90;;;;;;5082481;28;19984;-72
2022/10/07 10:15:27;;;;;;;;;;;15.80;99.90;;;;;;5082158;28;19924;-71
2022/10/07 10:17:55;;;;;;;;;;;15.90;99.90;;;;;;5082843;28;20111;-71
2022/10/07 10:20:29;;;;;;;;;;;16.10;99.90;;;;;;5082216;28;20212;-70
2022/10/07 10:22:56;;;;;;;;;;;16.20;99.90;;;;;;5067432;28;19926;-72
2022/10/07 10:28:22;;;;;;;;;;;16.40;99.90;;;;;;5073657;28;19917;-71
2022/10/07 10:30:53;;;;;;;;;;;16.50;99.90;;;;;;5086532;28;19987;-71
2022/10/07 10:33:23;;;;;;;;;;;16.60;99.90;;;;;;5086544;28;19942;-71
2022/10/07 10:35:55;;;;;;;;;;;16.70;99.90;;;;;;5085971;28;19980;-71
2022/10/07 10:38:26;;;;;;;;;;;16.80;99.90;;;;;;5086305;28;19927;-71
2022/10/07 10:40:58;;;;;;;;;;;16.90;99.90;;;;;;5086256;28;19927;-70
2022/10/07 10:43:28;;;;;;;;;;;16.90;99.90;;;;;;5086163;28;19920;-71
2022/10/07 10:46:01;;;;;;;;;;;17.00;99.90;;;;;;5085818;28;19920;-71
2022/10/07 10:48:29;;;;;;;;;;;17.10;99.90;;;;;;5086012;28;20200;-71
2022/10/07 10:51:00;;;;;;;;;;;17.20;99.90;;;;;;5085917;28;19921;-71
2022/10/07 10:53:34;;;;;;;;;;;17.30;99.90;;;;;;5085619;28;19920;-71
2022/10/07 10:56:06;;;;;;;;;;;17.30;99.90;;;;;;5085664;28;19927;-70
2022/10/07 10:58:39;;;;;;;;;;;17.40;99.90;;;;;;5085944;28;19927;-71
2022/10/07 11:01:10;;;;;;;;;;;17.60;99.90;;;;;;5085715;28;19920;-72
2022/10/07 11:03:54;;;;;;;;;;;17.70;99.90;;;;;;5065679;28;19929;-70
2022/10/07 11:06:25;;;;;;;;;;;17.80;99.90;;;;;;5065851;28;19966;-71
2022/10/07 11:08:53;;;;;;;;;;;17.90;99.90;;;;;;5082730;28;19921;-71
2022/10/07 11:11:21;;;;;;;;;;;18.00;99.90;;;;;;5084707;28;19979;-71
2022/10/07 11:13:51;;;;;;;;;;;18.20;99.90;;;;;;5065568;28;19924;-70
2022/10/07 11:16:21;;;;;;;;;;;18.30;99.90;;;;;;5065351;28;19921;-71
2022/10/07 11:18:50;;;;;;;;;;;18.40;99.90;;;;;;5065754;28;19927;-71
2022/10/07 11:21:19;;;;;;;;;;;18.50;99.90;;;;;;5082959;28;20233;-71
2022/10/07 11:23:50;;;;;;;;;;;18.70;99.90;;;;;;5085971;28;19959;-70
2022/10/07 11:26:20;;;;;;;;;;;18.90;99.90;;;;;;5084702;28;19920;-71
2022/10/07 11:28:48;;;;;;;;;;;19.10;99.90;;;;;;5085402;28;19927;-71
2022/10/07 11:31:19;;;;;;;;;;;19.40;99.90;;;;;;5085061;28;20201;-70
2022/10/07 11:33:48;;;;;;;;;;;19.60;99.90;;;;;;5084770;28;20207;-71
2022/10/07 11:36:17;;;;;;;;;;;19.70;99.90;;;;;;5084591;28;19920;-72
2022/10/07 11:38:45;;;;;;;;;;;19.80;99.90;;;;;;5084870;28;19921;-72
2022/10/07 11:41:19;;;;;;;;;;;19.90;99.90;;;;;;5084967;28;19929;-72
2022/10/07 11:43:46;;;;;;;;;;;20.00;99.90;;;;;;5084753;28;19921;-73
2022/10/07 11:46:18;;;;;;;;;;;20.20;99.90;;;;;;5082424;28;19921;-71
2022/10/07 11:48:47;;;;;;;;;;;20.30;99.90;;;;;;5076624;28;19948;-71
2022/10/07 11:51:19;;;;;;;;;;;20.30;99.90;;;;;;5084588;28;19921;-71
2022/10/07 11:53:46;;;;;;;;;;;20.40;99.90;;;;;;5084770;28;20104;-71
2022/10/07 11:56:16;;;;;;;;;;;20.50;99.90;;;;;;5076233;28;19920;-71
2022/10/07 11:58:43;;;;;;;;;;;20.60;99.90;;;;;;5084879;28;19943;-71
2022/10/07 12:01:25;;;;;;;;;;;20.60;99.90;;;;;;5084587;28;19921;-71
2022/10/07 12:03:52;;;;;;;;;;;20.50;99.90;;;;;;5082836;28;19982;-71
2022/10/07 12:06:19;;;;;;;;;;;20.40;99.90;;;;;;5082873;28;19963;-71
2022/10/07 12:08:46;;;;;;;;;;;20.50;99.90;;;;;;5065460;28;19921;-71
2022/10/07 12:11:33;;;;;;;;;;;20.70;99.90;;;;;;5079376;28;19926;-71
2022/10/07 12:14:22;;;;;;;;;;;20.90;99.90;;;;;;5077878;28;19926;-71
2022/10/07 12:16:54;;;;;;;;;;;20.90;99.90;;;;;;5084142;28;19926;-71
2022/10/07 12:19:21;;;;;;;;;;;20.90;99.90;;;;;;5084457;28;19958;-74
2022/10/07 12:22:07;;;;;;;;;;;20.80;99.90;;;;;;5083941;28;19927;-71
2022/10/07 12:24:34;;;;;;;;;;;20.80;99.90;;;;;;5084013;28;20184;-71
2022/10/07 12:27:06;;;;;;;;;;;20.80;99.90;;;;;;5083950;28;19934;-71
2022/10/07 12:29:47;;;;;;;;;;;20.70;99.90;;;;;;5084270;28;19927;-72
2022/10/07 12:32:33;;;;;;;;;;;20.60;99.90;;;;;;5084206;28;19921;-71
2022/10/07 12:35:15;;;;;;;;;;;20.50;99.90;;;;;;5071225;28;19921;-70
2022/10/07 12:37:46;;;;;;;;;;;20.40;99.90;;;;;;5083651;28;19927;-70
2022/10/07 12:40:28;;;;;;;;;;;20.40;99.90;;;;;;5084288;28;20200;-71
2022/10/07 12:42:58;;;;;;;;;;;20.40;99.90;;;;;;5084369;28;19920;-71
2022/10/07 12:45:27;;;;;;;;;;;20.50;99.90;;;;;;5083086;28;19948;-71
2022/10/07 12:47:56;;;;;;;;;;;20.60;99.90;;;;;;5084183;28;19943;-71
2022/10/07 12:50:23;;;;;;;;;;;20.80;99.90;;;;;;5084158;28;19926;-69
2022/10/07 12:52:51;;;;;;;;;;;20.90;99.90;;;;;;5083946;28;19920;-69
2022/10/07 12:55:20;;;;;;;;;;;21.00;99.90;;;;;;5083460;28;19991;-69
2022/10/07 12:57:49;;;;;;;;;;;20.90;99.90;;;;;;5083712;28;20187;-69
2022/10/07 13:00:16;;;;;;;;;;;20.80;99.90;;;;;;5083543;28;19929;-68
2022/10/07 13:03:02;;;;;;;;;;;20.70;99.90;;;;;;5083961;28;19916;-69
2022/10/07 13:05:52;;;;;;;;;;;20.50;99.90;;;;;;5083557;28;19962;-68
2022/10/07 13:08:47;;;;;;;;;;;20.50;99.90;;;;;;5063397;28;19980;-68
2022/10/07 13:11:33;;;;;;;;;;;20.40;99.90;;;;;;5077471;28;19959;-68
2022/10/07 13:14:02;;;;;;;;;;;20.40;99.90;;;;;;5072040;28;19920;-68
2022/10/07 13:16:32;;;;;;;;;;;20.20;99.90;;;;;;5083302;28;19920;-69
2022/10/07 13:19:02;;;;;;;;;;;20.10;99.90;;;;;;5083569;28;19984;-69
2022/10/07 13:21:33;;;;;;;;;;;20.10;99.90;;;;;;5083712;28;19920;-68
2022/10/07 13:24:00;;;;;;;;;;;20.20;99.90;;;;;;5083457;28;19983;-68
2022/10/07 13:26:27;;;;;;;;;;;20.30;99.90;;;;;;5083090;28;19952;-69
2022/10/07 13:28:55;;;;;;;;;;;20.50;99.90;;;;;;5083441;28;19921;-71
2022/10/07 13:31:23;;;;;;;;;;;20.80;99.90;;;;;;5083268;28;19943;-70
2022/10/07 13:33:50;;;;;;;;;;;21.00;99.90;;;;;;5083224;28;19921;-70
2022/10/07 13:36:18;;;;;;;;;;;21.30;99.90;;;;;;5083188;28;19921;-71
2022/10/07 13:38:47;;;;;;;;;;;21.40;99.90;;;;;;5083062;28;19920;-70
2022/10/07 13:41:21;;;;;;;;;;;21.40;99.90;;;;;;5083237;28;19987;-69
2022/10/07 13:43:51;;;;;;;;;;;21.40;99.90;;;;;;5083356;28;19920;-69
2022/10/07 13:46:18;;;;;;;;;;;21.50;99.90;;;;;;5082653;28;19920;-69
2022/10/07 13:48:45;;;;;;;;;;;21.60;99.90;;;;;;5083071;28;19994;-69
2022/10/07 13:51:16;;;;;;;;;;;21.70;99.90;;;;;;5082915;28;19920;-69
2022/10/07 13:53:42;;;;;;;;;;;21.80;99.90;;;;;;5083340;28;19956;-69
2022/10/07 13:56:18;;;;;;;;;;;21.80;99.90;;;;;;5082511;28;19984;-70
2022/10/07 13:58:46;;;;;;;;;;;21.60;99.90;;;;;;5086807;28;19921;-69
2022/10/07 14:01:12;;;;;;;;;;;21.40;99.90;;;;;;5087349;28;20176;-69
2022/10/07 14:03:54;;;;;;;;;;;21.30;99.90;;;;;;5087279;28;19987;-70
2022/10/07 14:06:35;;;;;;;;;;;21.10;99.90;;;;;;5081584;28;19920;-70
2022/10/07 14:09:01;;;;;;;;;;;21.00;99.90;;;;;;5079444;28;19920;-71
2022/10/07 14:11:30;;;;;;;;;;;21.00;99.90;;;;;;5076605;28;20152;-70
2022/10/07 14:13:58;;;;;;;;;;;21.20;99.90;;;;;;5074972;28;19978;-70
2022/10/07 14:16:24;;;;;;;;;;;21.50;99.90;;;;;;5076714;28;19927;-70
2022/10/07 14:18:55;;;;;;;;;;;21.60;99.90;;;;;;5073760;28;19927;-70
2022/10/07 14:21:22;;;;;;;;;;;21.80;99.90;;;;;;5076442;28;20207;-71
2022/10/07 14:23:49;;;;;;;;;;;21.90;99.90;;;;;;5076299;28;19921;-70
2022/10/07 14:26:16;;;;;;;;;;;22.00;99.90;;;;;;5076051;28;20200;-70
2022/10/07 14:28:44;;;;;;;;;;;22.10;99.90;;;;;;5075345;28;19951;-70
2022/10/07 14:37:01;;;;;;;;;;;21.80;99.90;;;;;;5068982;28;19928;-73
2022/10/07 14:39:32;;;;;;;;;;;21.60;99.90;;;;;;5066629;28;20115;-71
2022/10/07 14:41:59;;;;;;;;;;;21.50;99.90;;;;;;5066588;28;19921;-71
2022/10/07 14:44:27;;;;;;;;;;;21.20;99.90;;;;;;5073610;28;19979;-73
2022/10/07 14:47:01;;;;;;;;;;;21.10;99.90;;;;;;5086125;28;19983;-71